Terminal Aerodrome Forecast
Issued by NWS Nashville, TN

Home | Current Version | Previous Version | Text Only | Print | Product List | Glossary On
Versions: 1 2 3 4 5 6 7 8 9 10 11 12 13 14 15 16
213
FTUS44 KOHX 281607 AAB
TAFBNA
TAF AMD
KBNA 281607Z 2816/0112 21009G19KT P6SM SCT009 BKN014 OVC020
      TEMPO 2816/2819 5SM -SHRA OVC009
     FM281900 19013G23KT P6SM VCSH OVC015
     FM282300 19015G25KT P6SM BKN025
     FM010900 20015G25KT 3SM TSRA OVC015CB=

USA.gov is the U.S. government's official web portal to all federal, state and local government web resources and services.